sensor_id;sensor_type;location;lat;lon;timestamp;P1;durP1;ratioP1;P2;durP2;ratioP2
17596;SDS011;8917;50.942;6.946;2023-07-30T00:01:46;6.53;;;3.67;;
17596;SDS011;8917;50.942;6.946;2023-07-30T00:04:14;4.00;;;3.00;;
17596;SDS011;8917;50.942;6.946;2023-07-30T00:06:42;3.60;;;3.30;;
17596;SDS011;8917;50.942;6.946;2023-07-30T00:09:09;5.77;;;4.53;;
17596;SDS011;8917;50.942;6.946;2023-07-30T00:11:36;4.77;;;3.83;;
17596;SDS011;8917;50.942;6.946;2023-07-30T00:14:03;5.87;;;3.97;;
17596;SDS011;8917;50.942;6.946;2023-07-30T00:16:31;3.73;;;3.10;;
17596;SDS011;8917;50.942;6.946;2023-07-30T00:18:58;5.90;;;3.33;;
17596;SDS011;8917;50.942;6.946;2023-07-30T00:21:26;4.97;;;3.07;;
17596;SDS011;8917;50.942;6.946;2023-07-30T00:23:53;3.77;;;2.97;;
17596;SDS011;8917;50.942;6.946;2023-07-30T00:26:21;5.03;;;3.23;;
17596;SDS011;8917;50.942;6.946;2023-07-30T00:28:51;3.90;;;3.30;;
17596;SDS011;8917;50.942;6.946;2023-07-30T00:31:18;4.53;;;3.80;;
17596;SDS011;8917;50.942;6.946;2023-07-30T00:33:45;4.63;;;3.83;;
17596;SDS011;8917;50.942;6.946;2023-07-30T00:36:12;3.43;;;3.13;;
17596;SDS011;8917;50.942;6.946;2023-07-30T00:38:41;3.63;;;3.13;;
17596;SDS011;8917;50.942;6.946;2023-07-30T00:41:08;5.27;;;3.53;;
17596;SDS011;8917;50.942;6.946;2023-07-30T00:43:36;3.63;;;3.33;;
17596;SDS011;8917;50.942;6.946;2023-07-30T00:46:03;3.80;;;2.50;;
17596;SDS011;8917;50.942;6.946;2023-07-30T00:48:31;5.33;;;3.87;;
17596;SDS011;8917;50.942;6.946;2023-07-30T00:50:58;5.00;;;4.50;;
17596;SDS011;8917;50.942;6.946;2023-07-30T00:53:26;4.43;;;3.80;;
17596;SDS011;8917;50.942;6.946;2023-07-30T00:55:56;4.40;;;3.50;;
17596;SDS011;8917;50.942;6.946;2023-07-30T00:58:23;5.10;;;3.00;;
17596;SDS011;8917;50.942;6.946;2023-07-30T01:00:51;5.73;;;2.80;;
17596;SDS011;8917;50.942;6.946;2023-07-30T01:03:21;2.53;;;2.33;;
17596;SDS011;8917;50.942;6.946;2023-07-30T01:05:49;3.57;;;2.80;;
17596;SDS011;8917;50.942;6.946;2023-07-30T01:08:17;4.07;;;2.97;;
17596;SDS011;8917;50.942;6.946;2023-07-30T01:10:44;4.33;;;3.53;;
17596;SDS011;8917;50.942;6.946;2023-07-30T01:13:13;3.87;;;3.37;;
17596;SDS011;8917;50.942;6.946;2023-07-30T01:15:42;3.37;;;3.07;;
17596;SDS011;8917;50.942;6.946;2023-07-30T01:18:10;3.30;;;3.00;;
17596;SDS011;8917;50.942;6.946;2023-07-30T01:20:37;4.13;;;3.73;;
17596;SDS011;8917;50.942;6.946;2023-07-30T01:23:06;3.90;;;3.37;;
17596;SDS011;8917;50.942;6.946;2023-07-30T01:25:36;4.90;;;3.77;;
17596;SDS011;8917;50.942;6.946;2023-07-30T01:28:04;5.30;;;3.47;;
17596;SDS011;8917;50.942;6.946;2023-07-30T01:30:32;3.50;;;3.20;;
17596;SDS011;8917;50.942;6.946;2023-07-30T01:33:01;3.57;;;2.87;;
17596;SDS011;8917;50.942;6.946;2023-07-30T01:35:30;5.07;;;3.10;;
17596;SDS011;8917;50.942;6.946;2023-07-30T01:37:58;4.73;;;2.87;;
17596;SDS011;8917;50.942;6.946;2023-07-30T01:40:31;5.07;;;3.10;;
17596;SDS011;8917;50.942;6.946;2023-07-30T01:42:59;3.17;;;2.87;;
17596;SDS011;8917;50.942;6.946;2023-07-30T01:45:26;5.20;;;3.70;;
17596;SDS011;8917;50.942;6.946;2023-07-30T01:47:54;6.83;;;3.03;;
17596;SDS011;8917;50.942;6.946;2023-07-30T01:50:21;5.20;;;3.10;;
17596;SDS011;8917;50.942;6.946;2023-07-30T01:52:49;5.17;;;2.70;;
17596;SDS011;8917;50.942;6.946;2023-07-30T01:55:16;5.33;;;2.70;;
17596;SDS011;8917;50.942;6.946;2023-07-30T01:57:45;5.23;;;3.17;;
17596;SDS011;8917;50.942;6.946;2023-07-30T02:00:13;3.20;;;2.80;;
17596;SDS011;8917;50.942;6.946;2023-07-30T02:02:40;6.47;;;2.60;;
17596;SDS011;8917;50.942;6.946;2023-07-30T02:05:07;4.33;;;2.93;;
17596;SDS011;8917;50.942;6.946;2023-07-30T02:07:34;4.23;;;2.87;;
17596;SDS011;8917;50.942;6.946;2023-07-30T02:10:02;5.63;;;3.20;;
17596;SDS011;8917;50.942;6.946;2023-07-30T02:12:31;5.30;;;2.63;;
17596;SDS011;8917;50.942;6.946;2023-07-30T02:15:00;5.53;;;2.60;;
17596;SDS011;8917;50.942;6.946;2023-07-30T02:17:27;6.20;;;2.63;;
17596;SDS011;8917;50.942;6.946;2023-07-30T02:19:55;4.20;;;2.17;;
17596;SDS011;8917;50.942;6.946;2023-07-30T02:22:22;3.90;;;2.73;;
17596;SDS011;8917;50.942;6.946;2023-07-30T02:24:49;7.63;;;2.87;;
17596;SDS011;8917;50.942;6.946;2023-07-30T02:27:17;6.83;;;3.50;;
17596;SDS011;8917;50.942;6.946;2023-07-30T02:29:44;5.53;;;3.50;;
17596;SDS011;8917;50.942;6.946;2023-07-30T02:32:13;5.50;;;3.60;;
17596;SDS011;8917;50.942;6.946;2023-07-30T02:34:40;5.43;;;3.20;;
17596;SDS011;8917;50.942;6.946;2023-07-30T02:37:07;3.87;;;2.40;;
17596;SDS011;8917;50.942;6.946;2023-07-30T02:39:35;8.53;;;2.77;;
17596;SDS011;8917;50.942;6.946;2023-07-30T02:42:02;4.07;;;2.53;;
17596;SDS011;8917;50.942;6.946;2023-07-30T02:44:29;2.67;;;2.07;;
17596;SDS011;8917;50.942;6.946;2023-07-30T02:46:57;4.53;;;2.83;;
17596;SDS011;8917;50.942;6.946;2023-07-30T02:49:26;5.07;;;2.87;;
17596;SDS011;8917;50.942;6.946;2023-07-30T02:51:53;7.00;;;2.90;;
17596;SDS011;8917;50.942;6.946;2023-07-30T02:54:20;6.93;;;2.80;;
17596;SDS011;8917;50.942;6.946;2023-07-30T02:56:48;5.77;;;2.87;;
17596;SDS011;8917;50.942;6.946;2023-07-30T02:59:16;4.67;;;2.80;;
17596;SDS011;8917;50.942;6.946;2023-07-30T03:01:43;4.43;;;2.47;;
17596;SDS011;8917;50.942;6.946;2023-07-30T03:04:10;4.87;;;2.87;;
17596;SDS011;8917;50.942;6.946;2023-07-30T03:06:39;3.83;;;2.57;;
17596;SDS011;8917;50.942;6.946;2023-07-30T03:09:06;6.33;;;2.50;;
17596;SDS011;8917;50.942;6.946;2023-07-30T03:11:34;4.70;;;2.53;;
17596;SDS011;8917;50.942;6.946;2023-07-30T03:14:01;4.73;;;2.30;;
17596;SDS011;8917;50.942;6.946;2023-07-30T03:16:28;5.90;;;2.50;;
17596;SDS011;8917;50.942;6.946;2023-07-30T03:18:55;6.20;;;2.60;;
17596;SDS011;8917;50.942;6.946;2023-07-30T03:21:23;3.93;;;2.43;;
17596;SDS011;8917;50.942;6.946;2023-07-30T03:23:51;6.93;;;2.30;;
17596;SDS011;8917;50.942;6.946;2023-07-30T03:26:19;3.57;;;2.30;;
17596;SDS011;8917;50.942;6.946;2023-07-30T03:28:46;5.77;;;2.30;;
17596;SDS011;8917;50.942;6.946;2023-07-30T03:31:13;3.77;;;2.40;;
17596;SDS011;8917;50.942;6.946;2023-07-30T03:33:41;6.37;;;2.90;;
17596;SDS011;8917;50.942;6.946;2023-07-30T03:36:10;4.10;;;2.70;;
17596;SDS011;8917;50.942;6.946;2023-07-30T03:38:39;5.00;;;3.00;;
17596;SDS011;8917;50.942;6.946;2023-07-30T03:41:08;5.83;;;2.80;;
17596;SDS011;8917;50.942;6.946;2023-07-30T03:43:35;4.63;;;2.67;;
17596;SDS011;8917;50.942;6.946;2023-07-30T03:46:02;6.67;;;2.80;;
17596;SDS011;8917;50.942;6.946;2023-07-30T03:48:30;4.43;;;2.73;;
17596;SDS011;8917;50.942;6.946;2023-07-30T03:50:57;6.30;;;3.07;;
17596;SDS011;8917;50.942;6.946;2023-07-30T03:53:24;3.87;;;2.60;;
17596;SDS011;8917;50.942;6.946;2023-07-30T03:55:51;5.15;;;2.75;;
17596;SDS011;8917;50.942;6.946;2023-07-30T03:58:20;4.63;;;2.50;;
17596;SDS011;8917;50.942;6.946;2023-07-30T04:00:47;9.40;;;3.17;;
17596;SDS011;8917;50.942;6.946;2023-07-30T04:03:14;4.90;;;2.50;;
17596;SDS011;8917;50.942;6.946;2023-07-30T04:05:41;7.57;;;2.40;;
17596;SDS011;8917;50.942;6.946;2023-07-30T04:08:08;5.77;;;2.30;;
17596;SDS011;8917;50.942;6.946;2023-07-30T04:10:36;5.67;;;2.50;;
17596;SDS011;8917;50.942;6.946;2023-07-30T04:13:04;3.63;;;2.20;;
17596;SDS011;8917;50.942;6.946;2023-07-30T04:15:34;6.60;;;2.80;;
17596;SDS011;8917;50.942;6.946;2023-07-30T04:18:01;4.47;;;2.40;;
17596;SDS011;8917;50.942;6.946;2023-07-30T04:20:28;7.70;;;2.63;;
17596;SDS011;8917;50.942;6.946;2023-07-30T04:22:55;6.83;;;2.67;;
17596;SDS011;8917;50.942;6.946;2023-07-30T04:25:23;5.23;;;2.50;;
17596;SDS011;8917;50.942;6.946;2023-07-30T04:27:50;7.00;;;2.47;;
17596;SDS011;8917;50.942;6.946;2023-07-30T04:30:17;6.27;;;2.60;;
17596;SDS011;8917;50.942;6.946;2023-07-30T04:32:46;4.43;;;2.30;;
17596;SDS011;8917;50.942;6.946;2023-07-30T04:35:13;6.90;;;2.27;;
17596;SDS011;8917;50.942;6.946;2023-07-30T04:37:40;5.80;;;2.50;;
17596;SDS011;8917;50.942;6.946;2023-07-30T04:40:08;6.07;;;2.73;;
17596;SDS011;8917;50.942;6.946;2023-07-30T04:42:35;4.10;;;2.43;;
17596;SDS011;8917;50.942;6.946;2023-07-30T04:45:02;9.67;;;2.77;;
17596;SDS011;8917;50.942;6.946;2023-07-30T04:47:30;4.77;;;2.20;;
17596;SDS011;8917;50.942;6.946;2023-07-30T04:49:57;6.97;;;2.37;;
17596;SDS011;8917;50.942;6.946;2023-07-30T04:52:24;3.80;;;2.20;;
17596;SDS011;8917;50.942;6.946;2023-07-30T04:54:52;4.77;;;2.13;;
17596;SDS011;8917;50.942;6.946;2023-07-30T04:57:19;5.40;;;2.20;;
17596;SDS011;8917;50.942;6.946;2023-07-30T04:59:46;4.00;;;2.10;;
17596;SDS011;8917;50.942;6.946;2023-07-30T05:02:13;5.00;;;2.20;;
17596;SDS011;8917;50.942;6.946;2023-07-30T05:04:41;4.17;;;2.03;;
17596;SDS011;8917;50.942;6.946;2023-07-30T05:07:09;4.03;;;2.27;;
17596;SDS011;8917;50.942;6.946;2023-07-30T05:09:36;4.63;;;2.20;;
17596;SDS011;8917;50.942;6.946;2023-07-30T05:12:04;4.83;;;2.10;;
17596;SDS011;8917;50.942;6.946;2023-07-30T05:14:31;5.63;;;2.20;;
17596;SDS011;8917;50.942;6.946;2023-07-30T05:16:58;5.87;;;2.60;;
17596;SDS011;8917;50.942;6.946;2023-07-30T05:19:25;4.80;;;2.23;;
17596;SDS011;8917;50.942;6.946;2023-07-30T05:21:52;6.20;;;2.60;;
17596;SDS011;8917;50.942;6.946;2023-07-30T05:24:21;2.93;;;2.07;;
17596;SDS011;8917;50.942;6.946;2023-07-30T05:26:48;3.80;;;2.30;;
17596;SDS011;8917;50.942;6.946;2023-07-30T05:29:16;4.13;;;1.90;;
17596;SDS011;8917;50.942;6.946;2023-07-30T05:31:43;3.97;;;2.00;;
17596;SDS011;8917;50.942;6.946;2023-07-30T05:34:10;4.53;;;2.03;;
17596;SDS011;8917;50.942;6.946;2023-07-30T05:36:37;5.10;;;2.50;;
17596;SDS011;8917;50.942;6.946;2023-07-30T05:39:04;3.83;;;2.13;;
17596;SDS011;8917;50.942;6.946;2023-07-30T05:41:33;5.10;;;2.13;;
17596;SDS011;8917;50.942;6.946;2023-07-30T05:44:00;7.03;;;2.17;;
17596;SDS011;8917;50.942;6.946;2023-07-30T05:46:27;8.83;;;2.57;;
17596;SDS011;8917;50.942;6.946;2023-07-30T05:48:54;4.63;;;1.93;;
17596;SDS011;8917;50.942;6.946;2023-07-30T05:51:21;7.30;;;2.03;;
17596;SDS011;8917;50.942;6.946;2023-07-30T05:53:49;4.20;;;1.90;;
17596;SDS011;8917;50.942;6.946;2023-07-30T05:56:16;5.00;;;2.30;;
17596;SDS011;8917;50.942;6.946;2023-07-30T05:58:45;6.30;;;2.43;;
17596;SDS011;8917;50.942;6.946;2023-07-30T06:01:12;6.13;;;2.30;;
17596;SDS011;8917;50.942;6.946;2023-07-30T06:03:39;4.20;;;1.90;;
17596;SDS011;8917;50.942;6.946;2023-07-30T06:06:06;6.57;;;2.03;;
17596;SDS011;8917;50.942;6.946;2023-07-30T06:08:34;4.43;;;1.90;;
17596;SDS011;8917;50.942;6.946;2023-07-30T06:11:01;6.10;;;2.13;;
17596;SDS011;8917;50.942;6.946;2023-07-30T06:13:29;6.50;;;2.07;;
17596;SDS011;8917;50.942;6.946;2023-07-30T06:15:57;6.53;;;2.00;;
17596;SDS011;8917;50.942;6.946;2023-07-30T06:18:25;5.37;;;1.77;;
17596;SDS011;8917;50.942;6.946;2023-07-30T06:20:52;6.50;;;2.43;;
17596;SDS011;8917;50.942;6.946;2023-07-30T06:23:19;5.47;;;1.87;;
17596;SDS011;8917;50.942;6.946;2023-07-30T06:25:46;4.93;;;1.90;;
17596;SDS011;8917;50.942;6.946;2023-07-30T06:28:13;5.67;;;2.00;;
17596;SDS011;8917;50.942;6.946;2023-07-30T06:30:40;3.13;;;1.93;;
17596;SDS011;8917;50.942;6.946;2023-07-30T06:33:09;6.00;;;2.40;;
17596;SDS011;8917;50.942;6.946;2023-07-30T06:35:36;4.93;;;1.93;;
17596;SDS011;8917;50.942;6.946;2023-07-30T06:38:05;5.03;;;1.80;;
17596;SDS011;8917;50.942;6.946;2023-07-30T06:40:32;4.77;;;2.00;;
17596;SDS011;8917;50.942;6.946;2023-07-30T06:42:59;6.03;;;1.70;;
17596;SDS011;8917;50.942;6.946;2023-07-30T06:45:27;3.70;;;2.03;;
17596;SDS011;8917;50.942;6.946;2023-07-30T06:47:54;6.20;;;1.80;;
17596;SDS011;8917;50.942;6.946;2023-07-30T06:50:23;5.53;;;2.00;;
17596;SDS011;8917;50.942;6.946;2023-07-30T06:52:50;4.67;;;1.67;;
17596;SDS011;8917;50.942;6.946;2023-07-30T06:55:17;2.07;;;1.53;;
17596;SDS011;8917;50.942;6.946;2023-07-30T06:57:44;4.60;;;1.70;;
17596;SDS011;8917;50.942;6.946;2023-07-30T07:00:12;3.17;;;1.80;;
17596;SDS011;8917;50.942;6.946;2023-07-30T07:02:44;4.27;;;1.60;;
17596;SDS011;8917;50.942;6.946;2023-07-30T07:05:11;5.10;;;2.03;;
17596;SDS011;8917;50.942;6.946;2023-07-30T07:07:39;4.37;;;1.83;;
17596;SDS011;8917;50.942;6.946;2023-07-30T07:10:07;5.93;;;1.70;;
17596;SDS011;8917;50.942;6.946;2023-07-30T07:12:35;9.47;;;2.50;;
17596;SDS011;8917;50.942;6.946;2023-07-30T07:15:03;3.00;;;1.60;;
17596;SDS011;8917;50.942;6.946;2023-07-30T07:17:30;2.93;;;1.60;;
17596;SDS011;8917;50.942;6.946;2023-07-30T07:19:58;2.20;;;1.20;;
17596;SDS011;8917;50.942;6.946;2023-07-30T07:22:25;3.27;;;1.70;;
17596;SDS011;8917;50.942;6.946;2023-07-30T07:24:54;3.77;;;1.50;;
17596;SDS011;8917;50.942;6.946;2023-07-30T07:27:21;7.27;;;1.80;;
17596;SDS011;8917;50.942;6.946;2023-07-30T07:29:49;2.87;;;1.57;;
17596;SDS011;8917;50.942;6.946;2023-07-30T07:32:16;4.40;;;1.90;;
17596;SDS011;8917;50.942;6.946;2023-07-30T07:34:45;2.63;;;1.63;;
17596;SDS011;8917;50.942;6.946;2023-07-30T07:37:13;3.77;;;1.60;;
17596;SDS011;8917;50.942;6.946;2023-07-30T07:39:41;4.27;;;1.87;;
17596;SDS011;8917;50.942;6.946;2023-07-30T07:42:10;4.40;;;1.90;;
17596;SDS011;8917;50.942;6.946;2023-07-30T07:44:37;5.17;;;2.00;;
17596;SDS011;8917;50.942;6.946;2023-07-30T07:47:04;6.23;;;1.77;;
17596;SDS011;8917;50.942;6.946;2023-07-30T07:49:31;6.63;;;1.90;;
17596;SDS011;8917;50.942;6.946;2023-07-30T07:51:59;3.90;;;1.80;;
17596;SDS011;8917;50.942;6.946;2023-07-30T07:54:26;4.87;;;1.77;;
17596;SDS011;8917;50.942;6.946;2023-07-30T07:56:53;6.80;;;2.10;;
17596;SDS011;8917;50.942;6.946;2023-07-30T07:59:21;8.07;;;2.23;;
17596;SDS011;8917;50.942;6.946;2023-07-30T08:01:49;4.60;;;1.90;;
17596;SDS011;8917;50.942;6.946;2023-07-30T08:04:16;6.80;;;2.00;;
17596;SDS011;8917;50.942;6.946;2023-07-30T08:06:43;5.97;;;2.20;;
17596;SDS011;8917;50.942;6.946;2023-07-30T08:09:10;6.70;;;2.37;;
17596;SDS011;8917;50.942;6.946;2023-07-30T08:11:38;7.00;;;2.43;;
17596;SDS011;8917;50.942;6.946;2023-07-30T08:14:05;9.13;;;2.93;;
17596;SDS011;8917;50.942;6.946;2023-07-30T08:16:33;8.40;;;2.80;;
17596;SDS011;8917;50.942;6.946;2023-07-30T08:19:00;6.93;;;2.33;;
17596;SDS011;8917;50.942;6.946;2023-07-30T08:21:28;5.93;;;2.53;;
17596;SDS011;8917;50.942;6.946;2023-07-30T08:23:55;7.83;;;2.50;;
17596;SDS011;8917;50.942;6.946;2023-07-30T08:26:22;8.43;;;2.80;;
17596;SDS011;8917;50.942;6.946;2023-07-30T08:28:49;7.67;;;3.63;;
17596;SDS011;8917;50.942;6.946;2023-07-30T08:31:16;5.30;;;2.03;;
17596;SDS011;8917;50.942;6.946;2023-07-30T08:33:45;7.27;;;3.00;;
17596;SDS011;8917;50.942;6.946;2023-07-30T08:36:12;9.17;;;2.70;;
17596;SDS011;8917;50.942;6.946;2023-07-30T08:38:39;6.97;;;2.73;;
17596;SDS011;8917;50.942;6.946;2023-07-30T08:41:07;4.27;;;2.50;;
17596;SDS011;8917;50.942;6.946;2023-07-30T08:43:34;7.33;;;3.20;;
17596;SDS011;8917;50.942;6.946;2023-07-30T08:46:01;8.63;;;3.23;;
17596;SDS011;8917;50.942;6.946;2023-07-30T08:48:28;9.40;;;2.90;;
17596;SDS011;8917;50.942;6.946;2023-07-30T08:50:57;10.20;;;2.63;;
17596;SDS011;8917;50.942;6.946;2023-07-30T08:53:24;12.57;;;3.00;;
17596;SDS011;8917;50.942;6.946;2023-07-30T08:55:52;7.63;;;2.17;;
17596;SDS011;8917;50.942;6.946;2023-07-30T08:58:21;6.83;;;2.50;;
17596;SDS011;8917;50.942;6.946;2023-07-30T09:00:49;10.40;;;2.57;;
17596;SDS011;8917;50.942;6.946;2023-07-30T09:03:17;12.07;;;2.67;;
17596;SDS011;8917;50.942;6.946;2023-07-30T09:05:44;5.87;;;2.30;;
17596;SDS011;8917;50.942;6.946;2023-07-30T09:08:13;10.63;;;2.40;;
17596;SDS011;8917;50.942;6.946;2023-07-30T09:10:41;6.07;;;2.17;;
17596;SDS011;8917;50.942;6.946;2023-07-30T09:13:08;9.20;;;2.40;;
17596;SDS011;8917;50.942;6.946;2023-07-30T09:15:36;5.67;;;2.10;;
17596;SDS011;8917;50.942;6.946;2023-07-30T09:18:03;4.67;;;2.00;;
17596;SDS011;8917;50.942;6.946;2023-07-30T09:20:36;8.27;;;2.57;;
17596;SDS011;8917;50.942;6.946;2023-07-30T09:23:04;9.30;;;4.00;;
17596;SDS011;8917;50.942;6.946;2023-07-30T09:25:33;6.03;;;2.17;;
17596;SDS011;8917;50.942;6.946;2023-07-30T09:28:00;7.53;;;2.23;;
17596;SDS011;8917;50.942;6.946;2023-07-30T09:30:28;5.53;;;2.30;;
17596;SDS011;8917;50.942;6.946;2023-07-30T09:32:56;9.83;;;2.47;;
17596;SDS011;8917;50.942;6.946;2023-07-30T09:35:23;6.57;;;2.03;;
17596;SDS011;8917;50.942;6.946;2023-07-30T09:37:57;6.20;;;1.97;;
17596;SDS011;8917;50.942;6.946;2023-07-30T09:40:30;6.63;;;2.40;;
17596;SDS011;8917;50.942;6.946;2023-07-30T09:42:59;6.07;;;1.80;;
17596;SDS011;8917;50.942;6.946;2023-07-30T09:45:26;4.47;;;1.90;;
17596;SDS011;8917;50.942;6.946;2023-07-30T09:47:54;7.90;;;3.00;;
17596;SDS011;8917;50.942;6.946;2023-07-30T09:50:22;5.97;;;2.20;;
17596;SDS011;8917;50.942;6.946;2023-07-30T09:52:49;5.10;;;2.47;;
17596;SDS011;8917;50.942;6.946;2023-07-30T09:55:17;8.33;;;3.40;;
17596;SDS011;8917;50.942;6.946;2023-07-30T09:57:44;5.47;;;2.10;;
17596;SDS011;8917;50.942;6.946;2023-07-30T10:00:13;5.80;;;2.47;;
17596;SDS011;8917;50.942;6.946;2023-07-30T10:02:41;4.47;;;1.60;;
17596;SDS011;8917;50.942;6.946;2023-07-30T10:05:14;5.50;;;2.10;;
17596;SDS011;8917;50.942;6.946;2023-07-30T10:07:42;5.13;;;1.70;;
17596;SDS011;8917;50.942;6.946;2023-07-30T10:10:11;4.17;;;2.20;;
17596;SDS011;8917;50.942;6.946;2023-07-30T10:12:38;5.77;;;2.10;;
17596;SDS011;8917;50.942;6.946;2023-07-30T10:15:07;6.23;;;2.33;;
17596;SDS011;8917;50.942;6.946;2023-07-30T10:17:35;3.70;;;1.60;;
17596;SDS011;8917;50.942;6.946;2023-07-30T10:20:22;4.70;;;2.40;;
17596;SDS011;8917;50.942;6.946;2023-07-30T10:22:53;5.17;;;2.03;;
17596;SDS011;8917;50.942;6.946;2023-07-30T10:25:21;5.17;;;2.20;;
17596;SDS011;8917;50.942;6.946;2023-07-30T10:27:49;7.43;;;2.53;;
17596;SDS011;8917;50.942;6.946;2023-07-30T10:30:17;5.20;;;2.50;;
17596;SDS011;8917;50.942;6.946;2023-07-30T10:32:59;5.23;;;2.30;;
17596;SDS011;8917;50.942;6.946;2023-07-30T10:35:40;6.10;;;2.40;;
17596;SDS011;8917;50.942;6.946;2023-07-30T10:38:14;5.07;;;2.20;;
17596;SDS011;8917;50.942;6.946;2023-07-30T10:40:41;5.40;;;2.10;;
17596;SDS011;8917;50.942;6.946;2023-07-30T10:43:15;6.63;;;2.20;;
17596;SDS011;8917;50.942;6.946;2023-07-30T10:45:48;4.60;;;2.17;;
17596;SDS011;8917;50.942;6.946;2023-07-30T10:48:17;4.97;;;2.00;;
17596;SDS011;8917;50.942;6.946;2023-07-30T10:50:44;5.23;;;2.40;;
17596;SDS011;8917;50.942;6.946;2023-07-30T10:53:14;4.47;;;1.87;;
17596;SDS011;8917;50.942;6.946;2023-07-30T10:55:43;5.33;;;1.80;;
17596;SDS011;8917;50.942;6.946;2023-07-30T10:58:11;4.73;;;2.33;;
17596;SDS011;8917;50.942;6.946;2023-07-30T11:00:38;6.60;;;2.53;;
17596;SDS011;8917;50.942;6.946;2023-07-30T11:03:05;6.47;;;2.30;;
17596;SDS011;8917;50.942;6.946;2023-07-30T11:05:34;7.60;;;2.20;;
17596;SDS011;8917;50.942;6.946;2023-07-30T11:08:01;3.60;;;1.70;;
17596;SDS011;8917;50.942;6.946;2023-07-30T11:10:28;7.20;;;1.87;;
17596;SDS011;8917;50.942;6.946;2023-07-30T11:12:55;6.87;;;2.20;;
17596;SDS011;8917;50.942;6.946;2023-07-30T11:15:24;4.23;;;1.80;;
17596;SDS011;8917;50.942;6.946;2023-07-30T11:17:51;8.07;;;2.47;;
17596;SDS011;8917;50.942;6.946;2023-07-30T11:20:22;2.80;;;2.00;;
17596;SDS011;8917;50.942;6.946;2023-07-30T11:22:52;5.20;;;2.47;;
17596;SDS011;8917;50.942;6.946;2023-07-30T11:25:20;5.57;;;2.90;;
17596;SDS011;8917;50.942;6.946;2023-07-30T11:27:47;7.37;;;2.40;;
17596;SDS011;8917;50.942;6.946;2023-07-30T11:30:14;4.53;;;1.53;;
17596;SDS011;8917;50.942;6.946;2023-07-30T11:32:41;4.23;;;2.07;;
17596;SDS011;8917;50.942;6.946;2023-07-30T11:35:09;4.67;;;1.87;;
17596;SDS011;8917;50.942;6.946;2023-07-30T11:37:37;6.50;;;1.57;;
17596;SDS011;8917;50.942;6.946;2023-07-30T11:40:07;4.47;;;1.80;;
17596;SDS011;8917;50.942;6.946;2023-07-30T11:42:34;3.90;;;1.90;;
17596;SDS011;8917;50.942;6.946;2023-07-30T11:45:18;4.40;;;1.73;;
17596;SDS011;8917;50.942;6.946;2023-07-30T11:47:45;2.23;;;1.43;;
17596;SDS011;8917;50.942;6.946;2023-07-30T11:50:13;4.50;;;1.67;;
17596;SDS011;8917;50.942;6.946;2023-07-30T11:52:53;3.20;;;1.88;;
17596;SDS011;8917;50.942;6.946;2023-07-30T11:55:21;5.93;;;1.73;;
17596;SDS011;8917;50.942;6.946;2023-07-30T11:57:49;5.57;;;1.73;;
17596;SDS011;8917;50.942;6.946;2023-07-30T12:00:16;5.57;;;1.80;;
17596;SDS011;8917;50.942;6.946;2023-07-30T12:02:47;4.90;;;1.60;;
17596;SDS011;8917;50.942;6.946;2023-07-30T12:05:16;10.10;;;2.43;;
17596;SDS011;8917;50.942;6.946;2023-07-30T12:07:44;4.57;;;1.60;;
17596;SDS011;8917;50.942;6.946;2023-07-30T12:10:13;4.90;;;1.50;;
17596;SDS011;8917;50.942;6.946;2023-07-30T12:12:45;6.67;;;1.70;;
17596;SDS011;8917;50.942;6.946;2023-07-30T12:15:13;4.18;;;1.85;;
17596;SDS011;8917;50.942;6.946;2023-07-30T12:17:41;4.87;;;1.57;;
17596;SDS011;8917;50.942;6.946;2023-07-30T12:20:08;4.13;;;1.40;;
17596;SDS011;8917;50.942;6.946;2023-07-30T12:22:36;6.37;;;1.90;;
17596;SDS011;8917;50.942;6.946;2023-07-30T12:25:04;11.83;;;1.80;;
17596;SDS011;8917;50.942;6.946;2023-07-30T12:27:31;4.70;;;2.13;;
17596;SDS011;8917;50.942;6.946;2023-07-30T12:29:59;8.33;;;2.60;;
17596;SDS011;8917;50.942;6.946;2023-07-30T12:32:27;3.67;;;2.07;;
17596;SDS011;8917;50.942;6.946;2023-07-30T12:34:54;7.45;;;2.30;;
17596;SDS011;8917;50.942;6.946;2023-07-30T12:37:21;6.07;;;2.10;;
17596;SDS011;8917;50.942;6.946;2023-07-30T12:39:48;5.60;;;2.30;;
17596;SDS011;8917;50.942;6.946;2023-07-30T12:42:16;5.23;;;1.67;;
17596;SDS011;8917;50.942;6.946;2023-07-30T12:44:43;6.83;;;2.20;;
17596;SDS011;8917;50.942;6.946;2023-07-30T12:47:12;4.50;;;2.00;;
17596;SDS011;8917;50.942;6.946;2023-07-30T12:49:39;4.90;;;1.97;;
17596;SDS011;8917;50.942;6.946;2023-07-30T12:52:06;4.73;;;2.03;;
17596;SDS011;8917;50.942;6.946;2023-07-30T12:54:33;5.53;;;1.67;;
17596;SDS011;8917;50.942;6.946;2023-07-30T12:57:01;4.10;;;1.88;;
17596;SDS011;8917;50.942;6.946;2023-07-30T12:59:28;5.07;;;2.20;;
17596;SDS011;8917;50.942;6.946;2023-07-30T13:01:56;5.17;;;2.20;;
17596;SDS011;8917;50.942;6.946;2023-07-30T13:04:25;3.13;;;1.65;;
17596;SDS011;8917;50.942;6.946;2023-07-30T13:06:53;8.70;;;2.53;;
17596;SDS011;8917;50.942;6.946;2023-07-30T13:09:20;5.70;;;2.05;;
17596;SDS011;8917;50.942;6.946;2023-07-30T13:11:47;7.70;;;2.10;;
17596;SDS011;8917;50.942;6.946;2023-07-30T13:14:14;3.10;;;1.65;;
17596;SDS011;8917;50.942;6.946;2023-07-30T13:16:42;6.95;;;1.92;;
17596;SDS011;8917;50.942;6.946;2023-07-30T13:19:09;5.73;;;2.10;;
17596;SDS011;8917;50.942;6.946;2023-07-30T13:21:38;6.28;;;2.10;;
17596;SDS011;8917;50.942;6.946;2023-07-30T13:24:05;7.93;;;2.38;;
17596;SDS011;8917;50.942;6.946;2023-07-30T13:26:32;6.30;;;2.40;;
17596;SDS011;8917;50.942;6.946;2023-07-30T13:28:59;7.05;;;2.40;;
17596;SDS011;8917;50.942;6.946;2023-07-30T13:31:26;5.60;;;1.85;;
17596;SDS011;8917;50.942;6.946;2023-07-30T13:33:53;7.43;;;1.88;;
17596;SDS011;8917;50.942;6.946;2023-07-30T13:36:21;4.90;;;2.22;;
17596;SDS011;8917;50.942;6.946;2023-07-30T13:38:49;6.55;;;2.38;;
17596;SDS011;8917;50.942;6.946;2023-07-30T13:41:16;4.50;;;2.10;;
17596;SDS011;8917;50.942;6.946;2023-07-30T13:43:44;4.15;;;1.80;;
17596;SDS011;8917;50.942;6.946;2023-07-30T13:46:11;4.65;;;2.13;;
17596;SDS011;8917;50.942;6.946;2023-07-30T13:48:38;8.43;;;2.65;;
17596;SDS011;8917;50.942;6.946;2023-07-30T13:51:05;6.65;;;2.80;;
17596;SDS011;8917;50.942;6.946;2023-07-30T13:53:32;6.63;;;2.47;;
17596;SDS011;8917;50.942;6.946;2023-07-30T13:56:05;3.53;;;2.50;;
17596;SDS011;8917;50.942;6.946;2023-07-30T13:58:32;6.55;;;3.88;;
17596;SDS011;8917;50.942;6.946;2023-07-30T14:00:59;6.40;;;1.98;;
17596;SDS011;8917;50.942;6.946;2023-07-30T14:03:26;5.15;;;1.90;;
17596;SDS011;8917;50.942;6.946;2023-07-30T14:05:53;6.97;;;1.80;;
17596;SDS011;8917;50.942;6.946;2023-07-30T14:08:20;4.45;;;2.08;;
17596;SDS011;8917;50.942;6.946;2023-07-30T14:10:48;5.78;;;1.75;;
17596;SDS011;8917;50.942;6.946;2023-07-30T14:13:16;5.97;;;1.92;;
17596;SDS011;8917;50.942;6.946;2023-07-30T14:15:44;5.18;;;2.00;;
17596;SDS011;8917;50.942;6.946;2023-07-30T14:18:11;7.90;;;1.98;;
17596;SDS011;8917;50.942;6.946;2023-07-30T14:20:38;3.55;;;1.60;;
17596;SDS011;8917;50.942;6.946;2023-07-30T14:23:05;4.97;;;1.80;;
17596;SDS011;8917;50.942;6.946;2023-07-30T14:25:32;6.05;;;1.80;;
17596;SDS011;8917;50.942;6.946;2023-07-30T14:28:00;3.13;;;1.60;;
17596;SDS011;8917;50.942;6.946;2023-07-30T14:30:28;5.07;;;1.98;;
17596;SDS011;8917;50.942;6.946;2023-07-30T14:32:55;4.35;;;1.88;;
17596;SDS011;8917;50.942;6.946;2023-07-30T14:35:23;3.30;;;1.65;;
17596;SDS011;8917;50.942;6.946;2023-07-30T14:37:50;5.88;;;1.70;;
17596;SDS011;8917;50.942;6.946;2023-07-30T14:40:17;3.03;;;1.70;;
17596;SDS011;8917;50.942;6.946;2023-07-30T14:42:45;8.52;;;1.77;;
17596;SDS011;8917;50.942;6.946;2023-07-30T14:45:12;2.97;;;1.63;;
17596;SDS011;8917;50.942;6.946;2023-07-30T14:47:41;6.95;;;1.90;;
17596;SDS011;8917;50.942;6.946;2023-07-30T14:50:10;5.63;;;1.92;;
17596;SDS011;8917;50.942;6.946;2023-07-30T14:52:37;5.43;;;1.70;;
17596;SDS011;8917;50.942;6.946;2023-07-30T14:55:04;2.92;;;1.85;;
17596;SDS011;8917;50.942;6.946;2023-07-30T14:57:32;5.88;;;1.92;;
17596;SDS011;8917;50.942;6.946;2023-07-30T14:59:59;5.53;;;1.58;;
17596;SDS011;8917;50.942;6.946;2023-07-30T15:02:27;3.33;;;1.80;;
17596;SDS011;8917;50.942;6.946;2023-07-30T15:04:56;4.72;;;2.10;;